الصفحة الرئيسية
METAR-TAF:

METAR-TAF

مطار :

Touho, نيو كاليدونيا

دائرة عرض: 20-47-25S, خط طول: 165-15-34E, ارتفاع: 3 متر

METAR: مفقودة

زمن: 05:25 (18:25 UTC)

توقعات

تاريخ ووقت الإصدار 1ساعة و 25 دقيقة قبل الساعة 17:00UTC
التوقعات صالحة من05 الساعة 18 UTC إلى 06 الساعة 18 UTC
ريح 8 عقدة من الجنوب/الجنوب الشرقي
الرؤية 10 كم أو أكثر
غيوم قليلة على ارتفاع 6000 قدم
مؤقت
من 06 الساعة 09 UTC إلى 06 الساعة 18 UTC
الرؤية: 4000 متر
غيوم مفككة على ارتفاع 1400 قدم
غيوم متفرقة على ارتفاع 2000 قدم, مزن ركامية عمودية.
زخات من المطر

TAF: NWWU 051700Z 0518/0618 16008KT 9999 FEW060 TEMPO 0609/0618 4000 SHRA BKN014 SCT020TCU

أرصاد الطقس والتوقعات من أكثر من 4000 مطار (تقارير الطقس للمطار METAR والتنبؤ بالطقس بالمطارTAF).

المحطات المتاحة هي النقط الصفراء والحمراء على الخريطة.

حرك المؤشر فوق النقطة لمعرفة اسم المحطة.

ثم انقر لمعرفة أرصاد وتوقعات الطقس.

لتغيير الخارطة: اضغط على الأزرار الخضراء مع رمز الصليب الأسود للتكبير. على الزر الأخضر مع شرطة للتصغير، أو على الأسهم الخضراء للخرائط المجاورة.


METAR-TAF: